Terminal Aerodrome Forecast
Issued by NWS

Home | Current Version | Previous Version | Text Only | Print | Product List | Glossary On
Versions: 1 2 3 4 5 6 7 8 9 10 11 12 13 14 15 16 17 18 19 20 21 22 23 24 25 26 27 28 29 30 31 32 33 34 35 36 37 38 39 40 41 42 43 44 45 46 47
000
FTUS45 KBOU 270534
TAFAPA
TAF
KAPA 270534Z 2706/2806 20007KT P6SM VCSH SCT040 SCT080 BKN120
     FM270800 VRB04KT P6SM VCSH SCT060 BKN120
     FM271000 30006KT P6SM SCT020 SCT080 BKN120
      TEMPO 2710/2714 BKN020
     FM271500 34009KT P6SM FEW040 BKN100 PROB30 2715/2718 SHRA
     FM272000 36009KT P6SM SCT050 BKN090
      TEMPO 2720/2724 VRB20G30KT 5SM TSRA BKN050CB
     FM280000 35007KT P6SM VCTS SCT040CB BKN080
      TEMPO 2800/2804 VRB15G25KT 5SM -TSRA BKN050CB=

USA.gov is the U.S. government's official web portal to all federal, state and local government web resources and services.